Time;durP1;ratioP1;P1;durP2;ratioP2;P2;SDS_P1;SDS_P2;PMS_P1;PMS_P2;Temp;Humidity;BMP_temperature;BMP_pressure;BME280_temperature;BME280_humidity;BME280_pressure;Samples;Min_cycle;Max_cycle;Signal;HPM_P1;HPM_P2
2024/04/10 00:02:17;;;;;;;11.23;3.00;;;9.90;99.90;;;;;;5444402;26;20346;-70
2024/04/10 00:04:46;;;;;;;8.20;3.63;;;10.00;99.90;;;;;;5443682;26;20348;-71
2024/04/10 00:07:12;;;;;;;10.20;3.50;;;9.90;99.90;;;;;;5411994;26;20004;-71
2024/04/10 00:09:38;;;;;;;8.73;2.85;;;9.90;99.90;;;;;;5444404;26;20142;-71
2024/04/10 00:12:04;;;;;;;9.77;3.17;;;9.90;99.90;;;;;;5444316;26;20012;-70
2024/04/10 00:14:30;;;;;;;11.23;3.33;;;9.90;99.90;;;;;;5413559;26;20011;-70
2024/04/10 00:16:56;;;;;;;10.57;3.28;;;9.90;99.90;;;;;;5442016;26;20100;-71
2024/04/10 00:19:21;;;;;;;11.20;3.10;;;9.90;99.90;;;;;;5411353;26;20019;-69
2024/04/10 00:21:48;;;;;;;7.18;3.00;;;9.90;99.90;;;;;;5443881;26;20076;-70
2024/04/10 00:24:15;;;;;;;10.30;3.47;;;9.90;99.90;;;;;;5443891;26;20007;-70
2024/04/10 00:26:40;;;;;;;7.32;3.03;;;9.90;99.90;;;;;;5444302;26;19996;-72
2024/04/10 00:29:06;;;;;;;12.32;2.88;;;9.90;99.90;;;;;;5444229;26;19999;-71
2024/04/10 00:31:34;;;;;;;6.47;3.42;;;9.90;99.90;;;;;;5444512;26;19995;-71
2024/04/10 00:34:00;;;;;;;12.48;2.80;;;10.00;99.90;;;;;;5443074;26;20012;-71
2024/04/10 00:36:26;;;;;;;9.30;2.60;;;10.00;99.90;;;;;;5412631;26;20008;-71
2024/04/10 00:38:52;;;;;;;10.73;3.53;;;10.00;99.90;;;;;;5443013;26;20047;-71
2024/04/10 00:41:17;;;;;;;11.50;3.22;;;10.00;99.90;;;;;;5443940;26;20377;-74
2024/04/10 00:43:44;;;;;;;11.98;2.92;;;10.00;99.90;;;;;;5444364;26;20126;-69
2024/04/10 00:46:14;;;;;;;7.47;3.30;;;9.90;99.90;;;;;;5443922;26;20720;-68
2024/04/10 00:48:42;;;;;;;10.95;2.55;;;10.00;99.90;;;;;;5441601;26;20010;-70
2024/04/10 00:51:09;;;;;;;10.82;2.90;;;10.00;99.90;;;;;;5412075;26;19991;-70
2024/04/10 00:53:36;;;;;;;10.70;3.15;;;10.00;99.90;;;;;;5442985;26;20018;-72
2024/04/10 00:56:03;;;;;;;11.43;3.10;;;10.00;99.90;;;;;;5443250;26;19999;-71
2024/04/10 00:58:31;;;;;;;8.55;3.40;;;10.00;99.90;;;;;;5443408;26;20003;-70
2024/04/10 01:00:58;;;;;;;13.05;3.00;;;10.00;99.90;;;;;;5442936;26;20007;-71
2024/04/10 01:03:24;;;;;;;11.70;3.85;;;10.00;99.90;;;;;;5443715;26;20336;-69
2024/04/10 01:05:59;;;;;;;9.43;3.28;;;10.00;99.90;;;;;;5444300;26;19999;-72
2024/04/10 01:08:27;;;;;;;10.13;3.70;;;10.00;99.90;;;;;;5443757;26;20014;-69
2024/04/10 01:10:53;;;;;;;9.38;2.92;;;10.00;99.90;;;;;;5442954;26;20018;-70
2024/04/10 01:13:19;;;;;;;9.48;2.95;;;10.00;99.90;;;;;;5442832;26;20010;-73
2024/04/10 01:15:44;;;;;;;7.22;2.78;;;10.00;99.90;;;;;;5442518;26;20025;-72
2024/04/10 01:18:11;;;;;;;8.35;2.97;;;9.90;99.90;;;;;;5443264;26;20061;-68
2024/04/10 01:20:36;;;;;;;16.10;3.20;;;10.00;99.90;;;;;;5442336;26;20008;-73
2024/04/10 01:23:05;;;;;;;10.32;3.08;;;10.00;99.90;;;;;;5443276;26;20001;-72
2024/04/10 01:25:31;;;;;;;6.68;2.58;;;9.90;99.90;;;;;;5443183;26;19999;-72
2024/04/10 01:27:57;;;;;;;6.15;2.60;;;10.00;99.90;;;;;;5443010;26;20002;-70
2024/04/10 01:30:23;;;;;;;7.22;2.47;;;10.00;99.90;;;;;;5444146;26;20009;-72
2024/04/10 01:32:49;;;;;;;8.27;2.20;;;9.90;99.90;;;;;;5411506;26;20325;-72
2024/04/10 01:35:16;;;;;;;10.05;2.47;;;9.90;99.90;;;;;;5442107;26;20014;-76
2024/04/10 01:37:42;;;;;;;11.35;2.47;;;9.90;99.90;;;;;;5442851;26;20034;-70
2024/04/10 01:40:08;;;;;;;5.43;2.22;;;9.90;99.90;;;;;;5442406;26;20011;-70
2024/04/10 01:42:33;;;;;;;9.57;2.15;;;9.90;99.90;;;;;;5442117;26;20056;-71
2024/04/10 01:45:00;;;;;;;7.57;1.83;;;9.90;99.90;;;;;;5442664;26;20015;-71
2024/04/10 01:47:25;;;;;;;7.03;2.20;;;9.90;99.90;;;;;;5443375;26;19999;-70
2024/04/10 01:49:51;;;;;;;7.75;2.65;;;9.80;99.90;;;;;;5442962;26;20009;-72
2024/04/10 01:52:16;;;;;;;4.75;1.70;;;9.80;99.90;;;;;;5443375;26;20002;-74
2024/04/10 01:54:44;;;;;;;4.75;1.75;;;9.60;99.90;;;;;;5443217;26;20135;-70
2024/04/10 01:57:09;;;;;;;8.57;2.13;;;9.50;99.90;;;;;;5442692;26;20049;-70
2024/04/10 01:59:35;;;;;;;9.93;2.20;;;9.30;99.90;;;;;;5442783;26;20011;-70
2024/04/10 02:02:01;;;;;;;5.00;1.80;;;9.30;99.90;;;;;;5443452;26;20008;-70
2024/04/10 02:04:29;;;;;;;7.78;1.88;;;9.20;99.90;;;;;;5442861;26;20011;-70
2024/04/10 02:06:54;;;;;;;5.53;1.60;;;9.20;99.90;;;;;;5442372;26;20014;-70
2024/04/10 02:09:20;;;;;;;10.60;1.60;;;9.20;99.90;;;;;;5442984;26;19999;-70
2024/04/10 02:11:46;;;;;;;4.43;1.40;;;9.20;99.90;;;;;;5442235;26;20015;-70
2024/04/10 02:14:11;;;;;;;9.25;1.98;;;9.20;99.90;;;;;;5441942;26;20022;-73
2024/04/10 02:16:37;;;;;;;6.15;1.58;;;9.20;99.90;;;;;;5443196;26;20007;-70
2024/04/10 02:19:02;;;;;;;4.60;1.00;;;9.20;99.90;;;;;;5442116;26;20053;-71
2024/04/10 02:21:29;;;;;;;7.82;1.40;;;9.20;99.90;;;;;;5442739;26;19994;-71
2024/04/10 02:23:55;;;;;;;5.28;1.20;;;9.20;99.90;;;;;;5442770;26;20011;-73
2024/04/10 02:26:20;;;;;;;6.13;1.42;;;9.30;99.90;;;;;;5442717;26;20077;-72
2024/04/10 02:28:46;;;;;;;7.80;1.40;;;9.20;99.90;;;;;;5441705;26;20010;-72
2024/04/10 02:31:12;;;;;;;8.90;1.25;;;9.30;99.90;;;;;;5441322;26;19999;-71
2024/04/10 02:33:38;;;;;;;4.75;0.90;;;9.20;99.90;;;;;;5441282;26;20049;-69
2024/04/10 02:36:05;;;;;;;5.93;1.63;;;9.30;99.90;;;;;;5442399;26;20007;-69
2024/04/10 02:38:31;;;;;;;4.45;1.20;;;9.30;99.90;;;;;;5441996;26;19996;-71
2024/04/10 02:40:57;;;;;;;7.88;1.20;;;9.30;99.90;;;;;;5410117;26;20002;-70
2024/04/10 02:43:23;;;;;;;7.35;1.55;;;9.30;99.90;;;;;;5442996;26;20017;-72
2024/04/10 02:45:56;;;;;;;6.65;1.30;;;9.30;99.90;;;;;;5409928;26;19999;-71
2024/04/10 02:48:22;;;;;;;5.22;1.40;;;9.30;99.90;;;;;;5442109;26;20058;-72
2024/04/10 02:50:48;;;;;;;5.20;1.70;;;9.20;99.90;;;;;;5441970;26;20012;-73
2024/04/10 02:53:14;;;;;;;9.18;1.77;;;9.20;99.90;;;;;;5441802;26;20004;-72
2024/04/10 02:55:43;;;;;;;8.98;1.45;;;9.30;99.90;;;;;;5441917;26;20003;-71
2024/04/10 02:58:10;;;;;;;7.70;1.52;;;9.20;99.90;;;;;;5440965;26;20003;-71
2024/04/10 03:00:46;;;;;;;8.95;1.60;;;9.20;99.90;;;;;;5440489;26;20008;-72
2024/04/10 03:03:12;;;;;;;5.63;1.60;;;9.20;99.90;;;;;;5410356;26;20007;-73
2024/04/10 03:05:42;;;;;;;8.88;1.55;;;9.20;99.90;;;;;;5442107;26;20016;-71
2024/04/10 03:08:08;;;;;;;8.60;1.90;;;9.20;99.90;;;;;;5441206;26;19999;-71
2024/04/10 03:10:34;;;;;;;8.63;2.03;;;9.10;99.90;;;;;;5441895;26;20119;-73
2024/04/10 03:13:00;;;;;;;6.75;2.15;;;9.10;99.90;;;;;;5441696;26;19999;-73
2024/04/10 03:15:26;;;;;;;8.02;1.50;;;9.10;99.90;;;;;;5441317;26;20017;-70
2024/04/10 03:17:53;;;;;;;9.50;1.67;;;9.10;99.90;;;;;;5441092;26;20012;-70
2024/04/10 03:20:22;;;;;;;13.05;1.65;;;9.10;99.90;;;;;;5440229;26;19994;-71
2024/04/10 03:22:48;;;;;;;5.13;1.52;;;9.10;99.90;;;;;;5440935;26;20011;-70
2024/04/10 03:25:14;;;;;;;4.55;1.35;;;9.10;99.90;;;;;;5441587;26;20026;-70
2024/04/10 03:27:40;;;;;;;10.02;1.60;;;9.10;99.90;;;;;;5440465;26;20475;-70
2024/04/10 03:30:10;;;;;;;9.20;1.67;;;9.10;99.90;;;;;;5409570;26;20079;-70
2024/04/10 03:32:37;;;;;;;8.40;2.05;;;9.20;99.90;;;;;;5441516;26;20017;-72
2024/04/10 03:35:04;;;;;;;8.23;1.80;;;9.20;99.90;;;;;;5440283;26;20474;-71
2024/04/10 03:37:30;;;;;;;6.55;1.60;;;9.20;99.90;;;;;;5440414;26;20019;-70
2024/04/10 03:39:56;;;;;;;6.20;1.65;;;9.20;99.90;;;;;;5443857;26;20454;-71
2024/04/10 03:42:21;;;;;;;9.90;1.70;;;9.30;99.90;;;;;;5444226;26;20023;-70
2024/04/10 03:44:47;;;;;;;8.52;1.70;;;9.30;99.90;;;;;;5413268;26;20440;-70
2024/04/10 03:47:12;;;;;;;8.25;1.90;;;9.30;99.90;;;;;;5444868;26;20000;-71
2024/04/10 03:49:38;;;;;;;8.02;1.98;;;9.30;99.90;;;;;;5444483;26;20011;-72
2024/04/10 03:52:05;;;;;;;8.77;2.80;;;9.40;99.90;;;;;;5411496;26;20045;-74
2024/04/10 03:54:31;;;;;;;6.10;2.10;;;9.40;99.90;;;;;;5441798;26;20028;-74
2024/04/10 03:56:56;;;;;;;5.65;1.92;;;9.40;99.90;;;;;;5441464;26;19995;-73
2024/04/10 03:59:22;;;;;;;9.65;2.30;;;9.40;99.90;;;;;;5443054;26;19996;-71
2024/04/10 04:01:48;;;;;;;6.22;1.77;;;9.40;99.90;;;;;;5441788;26;20031;-72
2024/04/10 04:04:13;;;;;;;10.50;2.40;;;9.40;99.90;;;;;;5410865;26;20007;-71
2024/04/10 04:06:39;;;;;;;5.15;2.05;;;9.30;99.90;;;;;;5441215;26;20057;-74
2024/04/10 04:09:07;;;;;;;7.68;2.00;;;9.20;99.90;;;;;;5415587;26;20003;-72
2024/04/10 04:11:32;;;;;;;10.70;2.75;;;9.20;99.90;;;;;;5383575;26;20425;-70
2024/04/10 04:13:58;;;;;;;10.80;2.50;;;9.20;99.90;;;;;;5431802;26;20004;-71
2024/04/10 04:16:23;;;;;;;8.07;2.63;;;9.10;99.90;;;;;;5420918;26;20125;-72
2024/04/10 04:18:49;;;;;;;5.75;1.70;;;9.20;99.90;;;;;;5439689;26;20007;-73
2024/04/10 04:21:15;;;;;;;8.20;2.28;;;9.00;99.90;;;;;;5441313;26;20007;-71
2024/04/10 04:23:44;;;;;;;6.47;2.30;;;9.10;99.90;;;;;;5444109;26;20018;-72
2024/04/10 04:26:10;;;;;;;8.07;2.50;;;9.10;99.90;;;;;;5437182;26;19994;-70
2024/04/10 04:28:35;;;;;;;8.38;2.60;;;9.00;99.90;;;;;;5412376;26;20079;-70
2024/04/10 04:31:01;;;;;;;11.05;2.15;;;9.00;99.90;;;;;;5444680;26;20516;-71
2024/04/10 04:33:27;;;;;;;11.98;2.28;;;8.90;99.90;;;;;;5441296;26;20010;-71
2024/04/10 04:35:53;;;;;;;9.02;1.88;;;8.90;99.90;;;;;;5442434;26;20447;-71
2024/04/10 04:38:18;;;;;;;8.30;1.70;;;8.90;99.90;;;;;;5444299;26;20734;-72
2024/04/10 04:40:44;;;;;;;3.60;1.60;;;8.80;99.90;;;;;;5443196;26;20026;-71
2024/04/10 04:43:09;;;;;;;7.07;2.10;;;8.80;99.90;;;;;;5444247;26;20017;-71
2024/04/10 04:45:39;;;;;;;9.52;2.05;;;8.80;99.90;;;;;;5442397;26;19995;-71
2024/04/10 04:48:10;;;;;;;8.23;2.22;;;8.80;99.90;;;;;;5441379;26;20018;-71
2024/04/10 04:50:41;;;;;;;4.47;1.80;;;8.80;99.90;;;;;;5410964;26;19995;-72
2024/04/10 04:53:09;;;;;;;6.95;1.95;;;8.80;99.90;;;;;;5411592;26;20011;-72
2024/04/10 04:55:35;;;;;;;11.10;1.73;;;8.80;99.90;;;;;;5443773;26;20009;-71
2024/04/10 04:58:01;;;;;;;12.52;2.58;;;8.70;99.90;;;;;;5442891;26;20010;-71
2024/04/10 05:00:27;;;;;;;9.23;2.38;;;8.70;99.90;;;;;;5411834;26;20002;-71
2024/04/10 05:02:52;;;;;;;9.77;2.20;;;8.60;99.90;;;;;;5442937;26;20002;-72
2024/04/10 05:05:18;;;;;;;4.85;1.75;;;8.60;99.90;;;;;;5444105;26;20440;-71
2024/04/10 05:07:45;;;;;;;6.00;2.30;;;8.60;99.90;;;;;;5443686;26;20324;-71
2024/04/10 05:10:13;;;;;;;9.60;2.28;;;8.70;99.90;;;;;;5442382;26;20003;-71
2024/04/10 05:12:41;;;;;;;8.10;2.25;;;8.60;99.90;;;;;;5444110;26;19995;-71
2024/04/10 05:15:13;;;;;;;10.82;1.52;;;8.60;99.90;;;;;;5441378;26;20006;-71
2024/04/10 05:17:44;;;;;;;8.27;1.40;;;8.70;99.90;;;;;;5444339;26;20010;-71
2024/04/10 05:20:11;;;;;;;5.97;1.25;;;8.70;99.90;;;;;;5411008;26;19999;-71
2024/04/10 05:22:40;;;;;;;9.23;1.88;;;8.70;99.90;;;;;;5442974;26;20148;-71
2024/04/10 05:25:06;;;;;;;7.72;1.60;;;8.80;99.90;;;;;;5443925;26;20011;-69
2024/04/10 05:27:32;;;;;;;4.03;1.20;;;8.80;99.90;;;;;;5442941;26;20000;-71
2024/04/10 05:30:00;;;;;;;7.70;1.50;;;8.80;99.90;;;;;;5443308;26;20014;-71
2024/04/10 05:32:26;;;;;;;3.00;1.02;;;8.90;99.90;;;;;;5442080;26;20039;-72
2024/04/10 05:34:53;;;;;;;7.93;1.60;;;8.90;99.90;;;;;;5411462;26;20018;-71
2024/04/10 05:37:19;;;;;;;9.18;1.80;;;8.90;99.90;;;;;;5442431;26;20011;-72
2024/04/10 05:39:45;;;;;;;6.78;1.38;;;8.90;99.90;;;;;;5442762;26;20007;-71
2024/04/10 05:42:10;;;;;;;9.32;2.13;;;8.90;99.90;;;;;;5412355;26;20144;-71
2024/04/10 05:44:36;;;;;;;7.65;1.58;;;8.80;99.90;;;;;;5443558;26;20003;-71
2024/04/10 05:47:02;;;;;;;6.38;1.83;;;8.90;99.90;;;;;;5443274;26;19998;-72
2024/04/10 05:49:30;;;;;;;11.27;2.08;;;8.80;99.90;;;;;;5443420;26;19999;-72
2024/04/10 05:51:57;;;;;;;10.48;2.22;;;8.80;99.90;;;;;;5442078;26;20017;-73
2024/04/10 05:54:24;;;;;;;10.43;1.40;;;8.90;99.90;;;;;;5443292;26;19998;-71
2024/04/10 05:56:49;;;;;;;10.93;1.67;;;8.80;99.90;;;;;;5412009;26;20007;-72
2024/04/10 05:59:15;;;;;;;8.65;1.67;;;8.80;99.90;;;;;;5442523;26;20010;-71
2024/04/10 06:01:41;;;;;;;5.40;1.63;;;8.70;99.90;;;;;;5442575;26;20022;-71
2024/04/10 06:04:07;;;;;;;8.50;1.23;;;8.70;99.90;;;;;;5441122;26;20006;-71
2024/04/10 06:06:32;;;;;;;10.77;2.70;;;8.70;99.90;;;;;;5443230;26;19999;-72
2024/04/10 06:08:58;;;;;;;5.28;1.60;;;8.70;99.90;;;;;;5442378;26;20005;-73
2024/04/10 06:11:29;;;;;;;4.55;1.10;;;8.60;99.90;;;;;;5442701;26;19995;-71
2024/04/10 06:13:57;;;;;;;8.02;1.50;;;8.60;99.90;;;;;;5411201;26;20018;-71
2024/04/10 06:16:23;;;;;;;7.22;1.42;;;8.50;99.90;;;;;;5442342;26;20015;-70
2024/04/10 06:18:49;;;;;;;7.40;1.60;;;8.50;99.90;;;;;;5442203;26;20006;-71
2024/04/10 06:21:15;;;;;;;5.95;1.70;;;8.50;99.90;;;;;;5443028;26;20014;-70
2024/04/10 06:25:13;;;;;;;9.90;1.25;;;8.50;99.90;;;;;;5518679;25;20326;-71
2024/04/10 06:27:39;;;;;;;4.80;1.45;;;8.50;99.90;;;;;;5517799;25;20067;-71
2024/04/10 06:30:05;;;;;;;6.38;1.65;;;8.60;99.90;;;;;;5517184;25;19998;-72
2024/04/10 06:32:31;;;;;;;6.35;1.75;;;8.60;99.90;;;;;;5517240;25;19998;-72
2024/04/10 06:34:56;;;;;;;8.95;1.92;;;8.60;99.90;;;;;;5516933;25;19994;-74
2024/04/10 06:37:22;;;;;;;5.95;1.80;;;8.60;99.90;;;;;;5516411;25;19993;-72
2024/04/10 06:39:50;;;;;;;6.65;2.08;;;8.60;99.90;;;;;;5515010;25;19998;-72
2024/04/10 06:42:16;;;;;;;3.65;1.58;;;8.60;99.90;;;;;;5515516;25;20066;-72
2024/04/10 06:44:42;;;;;;;9.75;2.10;;;8.70;99.90;;;;;;5516996;25;19998;-75
2024/04/10 06:47:07;;;;;;;4.57;1.40;;;8.80;99.90;;;;;;5516731;25;19994;-73
2024/04/10 06:49:33;;;;;;;9.25;1.63;;;8.90;99.90;;;;;;5517105;25;20008;-73
2024/04/10 06:51:58;;;;;;;8.43;1.70;;;8.90;99.90;;;;;;5516715;25;20006;-73
2024/04/10 06:54:24;;;;;;;12.38;2.55;;;9.10;99.90;;;;;;5516814;25;19994;-73
2024/04/10 06:56:50;;;;;;;9.98;1.60;;;9.00;99.90;;;;;;5515259;25;20047;-74
2024/04/10 06:59:16;;;;;;;6.97;1.58;;;9.10;99.90;;;;;;5517246;25;20444;-74
2024/04/10 07:01:42;;;;;;;4.35;1.48;;;9.20;99.90;;;;;;5513092;25;19997;-73
2024/04/10 07:04:08;;;;;;;12.35;1.50;;;9.30;99.90;;;;;;5516476;25;19997;-73
2024/04/10 07:06:34;;;;;;;11.65;1.65;;;9.40;99.90;;;;;;5517236;25;21033;-74
2024/04/10 07:08:59;;;;;;;11.45;1.55;;;9.60;99.90;;;;;;5515363;25;19998;-74
2024/04/10 07:11:25;;;;;;;9.40;1.50;;;9.70;99.90;;;;;;5514975;25;19994;-73
2024/04/10 07:13:52;;;;;;;11.52;1.58;;;9.80;99.90;;;;;;5514224;26;20009;-72
2024/04/10 07:16:26;;;;;;;5.07;1.42;;;9.70;99.90;;;;;;5514231;26;20018;-72
2024/04/10 07:18:52;;;;;;;9.13;1.73;;;9.80;99.90;;;;;;5512866;25;20010;-72
2024/04/10 07:21:18;;;;;;;7.75;1.48;;;9.90;99.90;;;;;;5512165;26;20087;-72
2024/04/10 07:23:47;;;;;;;14.80;1.70;;;10.00;99.90;;;;;;5513822;25;19998;-71
2024/04/10 07:26:14;;;;;;;10.07;1.48;;;10.10;99.90;;;;;;5514907;25;20002;-73
2024/04/10 07:28:44;;;;;;;6.10;2.03;;;10.20;99.90;;;;;;5513770;25;19998;-75
2024/04/10 07:31:11;;;;;;;6.88;1.42;;;10.20;99.90;;;;;;5511360;25;20009;-73
2024/04/10 07:33:40;;;;;;;10.88;1.80;;;10.20;99.90;;;;;;5508892;25;20364;-72
2024/04/10 07:36:14;;;;;;;7.35;2.08;;;10.20;99.90;;;;;;5493138;26;19994;-72
2024/04/10 07:38:41;;;;;;;7.37;1.57;;;10.30;99.90;;;;;;5491327;26;19998;-72
2024/04/10 07:41:08;;;;;;;11.65;1.80;;;10.30;99.90;;;;;;5493805;26;20958;-73
2024/04/10 07:43:34;;;;;;;7.82;1.42;;;10.40;99.90;;;;;;5493621;26;19994;-73
2024/04/10 07:46:07;;;;;;;5.95;1.50;;;10.50;99.90;;;;;;5496417;26;19993;-72
2024/04/10 07:48:34;;;;;;;14.38;2.25;;;10.60;99.90;;;;;;5497149;26;20013;-73
2024/04/10 07:51:04;;;;;;;7.82;1.60;;;10.70;99.90;;;;;;5497103;26;19990;-73
2024/04/10 07:53:30;;;;;;;7.60;1.70;;;10.80;99.90;;;;;;5494933;26;19998;-73
2024/04/10 07:55:55;;;;;;;9.50;1.92;;;10.90;99.90;;;;;;5497644;26;20039;-73
2024/04/10 07:58:21;;;;;;;11.02;1.90;;;11.00;99.90;;;;;;5497298;26;19998;-73
2024/04/10 08:00:47;;;;;;;13.75;2.20;;;10.90;99.90;;;;;;5490901;26;20006;-73
2024/04/10 08:03:12;;;;;;;6.88;1.63;;;11.00;99.90;;;;;;5496951;26;20078;-71
2024/04/10 08:05:38;;;;;;;7.90;1.48;;;11.00;99.90;;;;;;5497516;26;20607;-72
2024/04/10 08:08:04;;;;;;;7.82;1.75;;;11.00;99.90;;;;;;5497967;26;19998;-72
2024/04/10 08:10:29;;;;;;;11.25;1.77;;;10.90;99.90;;;;;;5494403;26;20013;-72
2024/04/10 08:12:55;;;;;;;10.10;2.03;;;11.00;99.90;;;;;;5493336;26;20005;-73
2024/04/10 08:15:23;;;;;;;6.78;2.15;;;11.10;99.90;;;;;;5497668;26;20009;-73
2024/04/10 08:17:49;;;;;;;10.23;1.95;;;11.20;99.90;;;;;;5497333;26;20017;-77
2024/04/10 08:20:16;;;;;;;7.45;1.42;;;11.40;99.90;;;;;;5497138;26;20080;-74
2024/04/10 08:22:42;;;;;;;8.35;1.67;;;11.50;99.90;;;;;;5495342;26;20022;-77
2024/04/10 08:25:08;;;;;;;11.63;1.58;;;11.50;99.90;;;;;;5498018;26;20013;-74
2024/04/10 08:27:34;;;;;;;8.15;1.60;;;11.70;99.90;;;;;;5494982;26;20774;-70
2024/04/10 08:30:00;;;;;;;6.47;1.63;;;11.90;99.90;;;;;;5494488;26;20072;-73
2024/04/10 08:32:25;;;;;;;11.98;1.70;;;12.00;99.90;;;;;;5496044;26;20002;-73
2024/04/10 08:34:51;;;;;;;13.65;2.10;;;12.10;99.90;;;;;;5497247;26;19998;-75
2024/04/10 08:37:16;;;;;;;14.90;1.90;;;12.30;99.90;;;;;;5496893;26;20001;-73
2024/04/10 08:39:47;;;;;;;7.90;1.90;;;12.40;99.90;;;;;;5498397;26;20005;-76
2024/04/10 08:42:16;;;;;;;11.38;1.73;;;12.70;99.90;;;;;;5497798;26;19994;-72
2024/04/10 08:44:42;;;;;;;8.98;1.65;;;12.80;99.90;;;;;;5496325;26;20013;-73
2024/04/10 08:47:07;;;;;;;7.72;1.70;;;12.60;99.90;;;;;;5498523;26;20006;-73
2024/04/10 08:49:33;;;;;;;8.95;1.77;;;12.60;99.90;;;;;;5496682;26;20006;-74
2024/04/10 08:51:59;;;;;;;9.32;2.17;;;12.60;99.90;;;;;;5497727;26;19998;-74
2024/04/10 08:54:26;;;;;;;9.77;1.80;;;12.60;99.90;;;;;;5498018;26;20047;-75
2024/04/10 08:56:52;;;;;;;8.10;2.10;;;12.90;99.90;;;;;;5496213;26;19998;-75
2024/04/10 08:59:17;;;;;;;9.90;1.77;;;13.00;99.90;;;;;;5498637;26;20035;-72
2024/04/10 09:01:43;;;;;;;7.78;1.85;;;13.20;99.90;;;;;;5497085;26;19998;-74
2024/04/10 09:04:10;;;;;;;7.13;1.92;;;13.30;99.90;;;;;;5494438;26;20029;-73
2024/04/10 09:06:37;;;;;;;6.90;1.90;;;13.30;99.90;;;;;;5496943;26;19994;-72
2024/04/10 09:09:06;;;;;;;9.25;1.90;;;13.30;99.90;;;;;;5494089;26;19998;-72
2024/04/10 09:11:32;;;;;;;9.00;1.95;;;13.40;99.90;;;;;;5497221;26;19998;-74
2024/04/10 09:14:04;;;;;;;8.63;1.95;;;13.30;99.90;;;;;;5497193;26;20050;-73
2024/04/10 09:16:31;;;;;;;9.32;2.10;;;13.30;99.90;;;;;;5496933;26;20114;-73
2024/04/10 09:19:16;;;;;;;10.57;1.92;;;13.20;99.90;;;;;;5496170;26;19998;-74
2024/04/10 09:21:44;;;;;;;9.70;1.90;;;13.10;99.90;;;;;;5496785;26;19994;-74
2024/04/10 09:24:10;;;;;;;6.72;1.60;;;13.20;99.90;;;;;;5496392;26;19998;-74
2024/04/10 09:26:37;;;;;;;9.32;1.88;;;13.20;99.90;;;;;;5494391;26;20012;-70
2024/04/10 09:29:08;;;;;;;9.48;1.80;;;13.10;99.90;;;;;;5494815;26;20084;-76
2024/04/10 09:31:34;;;;;;;9.20;1.75;;;13.20;99.90;;;;;;5487201;26;20342;-73
2024/04/10 09:34:00;;;;;;;6.15;1.90;;;13.50;99.90;;;;;;5491587;26;19994;-76
2024/04/10 09:36:30;;;;;;;10.98;1.90;;;13.70;99.90;;;;;;5495606;26;20055;-73
2024/04/10 09:38:59;;;;;;;6.18;1.80;;;13.90;99.90;;;;;;5495335;26;20014;-78
2024/04/10 09:41:27;;;;;;;10.07;2.40;;;13.80;99.90;;;;;;5496976;26;20462;-74
2024/04/10 09:43:55;;;;;;;11.18;2.03;;;13.60;99.90;;;;;;5495694;26;20002;-72
2024/04/10 09:46:22;;;;;;;8.52;2.30;;;13.30;99.90;;;;;;5496317;26;20009;-74
2024/04/10 09:48:48;;;;;;;10.57;2.38;;;13.30;99.90;;;;;;5497114;26;20002;-74
2024/04/10 09:51:20;;;;;;;8.68;2.00;;;13.20;99.90;;;;;;5497416;26;20009;-73
2024/04/10 09:53:47;;;;;;;8.38;2.03;;;13.40;99.90;;;;;;5496791;26;20010;-75
2024/04/10 09:56:13;;;;;;;7.07;2.10;;;13.80;99.90;;;;;;5495941;26;19998;-72
2024/04/10 09:58:40;;;;;;;6.95;1.92;;;14.30;99.90;;;;;;5496306;26;20002;-74
2024/04/10 10:01:06;;;;;;;6.35;1.77;;;14.60;99.90;;;;;;5496076;26;20006;-73
2024/04/10 10:03:32;;;;;;;7.85;1.90;;;15.10;99.90;;;;;;5497311;26;19994;-74
2024/04/10 10:06:06;;;;;;;10.52;1.92;;;15.10;99.90;;;;;;5496133;26;20030;-71
2024/04/10 10:08:33;;;;;;;6.72;1.92;;;15.00;99.90;;;;;;5496482;26;20002;-75
2024/04/10 10:10:59;;;;;;;6.70;1.73;;;15.10;99.90;;;;;;5495806;26;20064;-73
2024/04/10 10:13:42;;;;;;;8.70;1.80;;;15.10;99.90;;;;;;5496756;26;20017;-74
2024/04/10 10:16:08;;;;;;;4.88;1.85;;;14.80;99.90;;;;;;5497048;26;20002;-73
2024/04/10 10:18:34;;;;;;;5.90;1.77;;;14.80;99.90;;;;;;5496234;26;19998;-73
2024/04/10 10:21:04;;;;;;;5.97;1.85;;;14.60;99.90;;;;;;5495608;26;19998;-71
2024/04/10 10:23:34;;;;;;;10.80;1.90;;;14.40;99.90;;;;;;5496441;26;20098;-72
2024/04/10 10:26:00;;;;;;;8.82;1.95;;;14.20;99.90;;;;;;5494913;26;20002;-75
2024/04/10 10:28:26;;;;;;;9.25;2.03;;;14.20;99.90;;;;;;5495350;26;20006;-74
2024/04/10 10:30:52;;;;;;;7.25;1.90;;;14.20;99.90;;;;;;5495215;26;20010;-74
2024/04/10 10:33:21;;;;;;;10.70;2.38;;;14.50;99.90;;;;;;5495215;26;20002;-73
2024/04/10 10:35:47;;;;;;;7.45;1.88;;;14.70;99.90;;;;;;5496267;26;20054;-75
2024/04/10 10:38:12;;;;;;;8.77;1.95;;;14.90;99.90;;;;;;5494901;26;20002;-73
2024/04/10 10:40:38;;;;;;;9.02;2.15;;;14.70;99.90;;;;;;5495432;26;20006;-73
2024/04/10 10:43:05;;;;;;;8.10;1.73;;;14.60;99.90;;;;;;5495551;26;20002;-73
2024/04/10 10:45:32;;;;;;;8.15;2.05;;;14.40;99.90;;;;;;5496637;26;20009;-72
2024/04/10 10:48:03;;;;;;;5.75;2.00;;;14.40;99.90;;;;;;5492349;26;20016;-75
2024/04/10 10:50:32;;;;;;;6.28;1.88;;;14.40;99.90;;;;;;5493082;26;20051;-73
2024/04/10 10:53:00;;;;;;;5.57;1.75;;;14.50;99.90;;;;;;5492630;26;20038;-72
2024/04/10 10:55:26;;;;;;;5.50;1.60;;;14.50;99.90;;;;;;5494896;26;20002;-75
2024/04/10 10:58:05;;;;;;;7.18;1.95;;;14.40;99.90;;;;;;5496536;26;20002;-72
2024/04/10 11:00:31;;;;;;;6.78;1.55;;;14.10;99.90;;;;;;5493152;26;19998;-73
2024/04/10 11:03:08;;;;;;;5.60;1.60;;;13.90;99.90;;;;;;5493122;26;19998;-71
2024/04/10 11:05:34;;;;;;;5.38;1.60;;;13.70;99.90;;;;;;5494253;26;20059;-73
2024/04/10 11:08:00;;;;;;;3.42;1.45;;;13.80;99.90;;;;;;5493549;26;20017;-72
2024/04/10 11:10:29;;;;;;;9.93;2.17;;;13.80;99.90;;;;;;5494707;26;19998;-71
2024/04/10 11:13:08;;;;;;;6.47;1.60;;;13.90;99.90;;;;;;5499475;26;20450;-72
2024/04/10 11:15:51;;;;;;;7.88;1.80;;;14.00;99.90;;;;;;5498698;26;20002;-74
2024/04/10 11:18:20;;;;;;;8.95;1.63;;;14.10;99.90;;;;;;5499027;26;20013;-73
2024/04/10 11:20:47;;;;;;;5.40;1.30;;;14.10;99.90;;;;;;5498211;26;20009;-73
2024/04/10 11:23:12;;;;;;;6.28;1.58;;;14.00;99.90;;;;;;5498222;26;20006;-73
2024/04/10 11:25:38;;;;;;;8.52;1.63;;;13.90;99.90;;;;;;5499844;26;20047;-72
2024/04/10 11:28:04;;;;;;;10.32;2.20;;;13.90;99.90;;;;;;5497930;26;19998;-73
2024/04/10 11:30:31;;;;;;;8.63;1.60;;;14.10;99.90;;;;;;5499372;26;20013;-73
2024/04/10 11:32:57;;;;;;;5.00;1.67;;;14.30;99.90;;;;;;5497780;26;20013;-73
2024/04/10 11:35:26;;;;;;;6.13;1.55;;;14.50;99.90;;;;;;5499244;26;20005;-74
2024/04/10 11:37:54;;;;;;;6.82;2.00;;;14.60;99.90;;;;;;5498072;26;19998;-76
2024/04/10 11:40:22;;;;;;;5.60;1.42;;;14.50;99.90;;;;;;5497299;26;20002;-74
2024/04/10 11:42:48;;;;;;;4.80;1.90;;;14.50;99.90;;;;;;5494043;26;20056;-73
2024/04/10 11:45:15;;;;;;;4.95;1.40;;;14.50;99.90;;;;;;5497615;26;20017;-73
2024/04/10 11:47:45;;;;;;;7.40;1.60;;;14.50;99.90;;;;;;5497020;26;20013;-73
2024/04/10 11:50:11;;;;;;;8.70;1.65;;;14.50;99.90;;;;;;5496405;26;20034;-74
2024/04/10 11:52:38;;;;;;;7.93;1.80;;;14.80;99.90;;;;;;5498456;26;20009;-73
2024/04/10 11:55:05;;;;;;;3.72;1.50;;;15.10;99.90;;;;;;5496538;26;20010;-75
2024/04/10 11:57:35;;;;;;;7.07;1.65;;;15.30;99.90;;;;;;5497925;26;20002;-74
2024/04/10 12:00:07;;;;;;;7.38;1.75;;;15.50;99.90;;;;;;5497786;26;19999;-74
2024/04/10 12:02:33;;;;;;;5.15;1.20;;;15.60;99.90;;;;;;5497019;26;20002;-75
2024/04/10 12:05:05;;;;;;;5.15;1.70;;;15.40;99.90;;;;;;5497908;26;20024;-73
2024/04/10 12:07:32;;;;;;;6.80;2.25;;;15.40;99.90;;;;;;5498583;26;20002;-74
2024/04/10 12:09:57;;;;;;;9.23;2.00;;;15.40;99.90;;;;;;5497058;26;20375;-75
2024/04/10 12:12:23;;;;;;;7.65;2.03;;;15.20;99.90;;;;;;5497113;26;20051;-74
2024/04/10 12:14:48;;;;;;;8.63;1.48;;;15.10;99.90;;;;;;5499444;26;20021;-74
2024/04/10 12:17:15;;;;;;;5.97;1.63;;;15.10;99.90;;;;;;5497590;26;20006;-74
2024/04/10 12:19:41;;;;;;;6.53;1.48;;;15.20;99.90;;;;;;5497314;26;20020;-71
2024/04/10 12:22:08;;;;;;;6.20;1.73;;;15.20;99.90;;;;;;5495659;26;20018;-76
2024/04/10 12:24:36;;;;;;;4.15;1.50;;;15.40;99.90;;;;;;5496082;26;20009;-72
2024/04/10 12:27:02;;;;;;;4.78;1.73;;;15.50;99.90;;;;;;5497320;26;20012;-74
2024/04/10 12:29:28;;;;;;;5.63;1.55;;;15.50;99.90;;;;;;5498633;26;20009;-72
2024/04/10 12:31:53;;;;;;;3.45;1.33;;;15.40;99.90;;;;;;5497843;26;20010;-75
2024/04/10 12:34:19;;;;;;;5.20;1.55;;;15.40;99.90;;;;;;5498136;26;20442;-76
2024/04/10 12:39:30;;;;;;;8.80;1.52;;;15.00;99.90;;;;;;5498466;26;20071;-74
2024/04/10 12:41:56;;;;;;;4.65;1.27;;;15.00;99.90;;;;;;5497577;26;20006;-75
2024/04/10 12:44:22;;;;;;;7.55;1.70;;;15.10;99.90;;;;;;5498130;26;20002;-72
2024/04/10 12:46:53;;;;;;;6.22;1.80;;;15.30;99.90;;;;;;5495019;26;20043;-72
2024/04/10 12:49:19;;;;;;;5.72;1.80;;;15.50;99.90;;;;;;5497285;26;20002;-73
2024/04/10 12:51:45;;;;;;;3.72;1.23;;;15.80;99.90;;;;;;5498324;26;20017;-73
2024/04/10 12:54:11;;;;;;;4.97;2.00;;;16.30;99.90;;;;;;5497143;26;20006;-74